createdAt,value
2022-08-28T00:02:24.612Z,85.50
2022-08-28T00:04:51.840Z,85.88
2022-08-28T00:07:18.689Z,86.35
2022-08-28T00:09:45.198Z,86.81
2022-08-28T00:12:12.493Z,85.66
2022-08-28T00:14:39.232Z,84.65
2022-08-28T00:17:05.814Z,84.91
2022-08-28T00:19:36.645Z,85.32
2022-08-28T00:22:05.028Z,87.21
2022-08-28T00:24:31.569Z,85.41
2022-08-28T00:27:16.599Z,86.17
2022-08-28T00:29:45.128Z,86.70
2022-08-28T00:32:11.768Z,86.45
2022-08-28T00:34:38.952Z,86.02
2022-08-28T00:37:06.016Z,86.04
2022-08-28T00:39:32.742Z,85.44
2022-08-28T00:41:59.214Z,85.65
2022-08-28T00:44:27.543Z,86.35
2022-08-28T00:46:56.606Z,86.52
2022-08-28T00:49:28.739Z,86.16
2022-08-28T00:52:05.842Z,85.67
2022-08-28T00:54:34.150Z,85.40
2022-08-28T00:57:03.703Z,86.03
2022-08-28T00:59:30.391Z,85.24
2022-08-28T01:01:58.085Z,85.31
2022-08-28T01:04:26.570Z,84.93
2022-08-28T01:06:55.968Z,84.96
2022-08-28T01:09:25.329Z,85.02
2022-08-28T01:11:53.798Z,84.94
2022-08-28T01:14:23.193Z,84.04
2022-08-28T01:16:58.082Z,85.38
2022-08-28T01:19:38.145Z,85.54
2022-08-28T01:22:31.270Z,85.75
2022-08-28T01:24:59.622Z,85.21
2022-08-28T01:27:26.757Z,86.84
2022-08-28T01:29:53.815Z,85.76
2022-08-28T01:32:38.861Z,86.87
2022-08-28T01:35:08.774Z,87.56
2022-08-28T01:37:36.417Z,86.86
2022-08-28T01:40:05.359Z,86.60
2022-08-28T01:42:37.426Z,86.02
2022-08-28T01:45:04.583Z,86.69
2022-08-28T01:47:31.078Z,86.60
2022-08-28T01:49:57.861Z,86.04
2022-08-28T01:52:26.523Z,85.89
2022-08-28T01:54:53.206Z,86.12
2022-08-28T01:57:19.752Z,86.93
2022-08-28T01:59:49.942Z,86.14
2022-08-28T02:02:16.957Z,86.10
2022-08-28T02:04:47.944Z,86.21
2022-08-28T02:07:16.817Z,85.56
2022-08-28T02:09:43.962Z,84.63
2022-08-28T02:12:10.526Z,85.26
2022-08-28T02:14:38.718Z,87.45
2022-08-28T02:17:05.201Z,86.11
2022-08-28T02:19:32.272Z,86.30
2022-08-28T02:21:58.836Z,85.95
2022-08-28T02:24:25.352Z,86.24
2022-08-28T02:26:51.865Z,86.24
2022-08-28T02:29:18.832Z,86.92
2022-08-28T02:31:45.346Z,86.47
2022-08-28T02:34:11.836Z,85.77
2022-08-28T02:36:42.121Z,85.43
2022-08-28T02:39:09.215Z,85.63
2022-08-28T02:41:35.689Z,85.53
2022-08-28T02:44:02.702Z,85.91
2022-08-28T02:46:29.330Z,85.97
2022-08-28T02:48:56.234Z,85.82
2022-08-28T02:51:24.053Z,85.29
2022-08-28T02:53:52.070Z,85.49
2022-08-28T02:56:18.807Z,86.68
2022-08-28T02:58:45.330Z,84.89
2022-08-28T03:01:13.540Z,84.33
2022-08-28T03:03:41.511Z,84.33
2022-08-28T03:06:08.964Z,84.30
2022-08-28T03:08:35.538Z,86.05
2022-08-28T03:11:02.128Z,85.39
2022-08-28T03:13:28.766Z,85.96
2022-08-28T03:15:56.335Z,86.66
2022-08-28T03:18:24.501Z,87.74
2022-08-28T03:20:52.163Z,87.37
2022-08-28T03:23:27.763Z,86.37
2022-08-28T03:25:56.586Z,86.42
2022-08-28T03:28:24.670Z,86.25
2022-08-28T03:30:51.332Z,84.76
2022-08-28T03:33:18.084Z,84.76
2022-08-28T03:35:44.619Z,84.34
2022-08-28T03:38:11.667Z,85.78
2022-08-28T03:40:40.525Z,84.51
2022-08-28T03:43:07.144Z,83.86
2022-08-28T03:45:33.788Z,83.65
2022-08-28T03:48:00.416Z,83.63
2022-08-28T03:50:26.932Z,83.84
2022-08-28T03:52:56.070Z,84.24
2022-08-28T03:55:22.986Z,84.51
2022-08-28T03:57:49.526Z,84.48
2022-08-28T04:00:16.542Z,83.55
2022-08-28T04:02:44.188Z,82.82
2022-08-28T04:05:11.303Z,83.13
2022-08-28T04:07:38.472Z,81.99
2022-08-28T04:10:05.675Z,81.59
2022-08-28T04:12:35.189Z,81.83
2022-08-28T04:15:02.025Z,81.17
2022-08-28T04:17:28.514Z,81.71
2022-08-28T04:19:55.032Z,81.43
2022-08-28T04:22:21.626Z,81.03
2022-08-28T04:24:50.294Z,80.90
2022-08-28T04:27:16.805Z,80.66
2022-08-28T04:29:43.299Z,80.81
2022-08-28T04:32:09.915Z,80.59
2022-08-28T04:34:37.761Z,80.27
2022-08-28T04:37:05.494Z,81.42
2022-08-28T04:39:32.845Z,80.88
2022-08-28T04:41:59.780Z,80.89
2022-08-28T04:44:26.775Z,81.30
2022-08-28T04:46:54.429Z,80.91
2022-08-28T04:49:22.897Z,81.92
2022-08-28T04:51:52.470Z,81.88
2022-08-28T04:54:19.149Z,80.77
2022-08-28T04:56:46.417Z,82.32
2022-08-28T04:59:13.197Z,82.92
2022-08-28T05:01:41.995Z,83.73
2022-08-28T05:04:08.846Z,84.39
2022-08-28T05:06:35.370Z,83.78
2022-08-28T05:09:03.744Z,84.38
2022-08-28T05:11:33.348Z,84.62
2022-08-28T05:14:01.048Z,83.64
2022-08-28T05:16:27.638Z,84.47
2022-08-28T05:18:54.161Z,85.18
2022-08-28T05:21:22.737Z,84.89
2022-08-28T05:23:51.115Z,84.26
2022-08-28T05:26:19.909Z,82.66
2022-08-28T05:28:49.937Z,82.97
2022-08-28T05:31:18.861Z,83.59
2022-08-28T05:33:47.398Z,84.53
2022-08-28T05:36:15.747Z,83.68
2022-08-28T05:38:42.477Z,84.23
2022-08-28T05:41:09.061Z,83.42
2022-08-28T05:43:36.326Z,83.05
2022-08-28T05:46:08.595Z,82.17
2022-08-28T05:48:38.300Z,82.87
2022-08-28T05:51:12.460Z,81.72
2022-08-28T05:53:41.896Z,82.69
2022-08-28T05:56:09.748Z,82.10
2022-08-28T05:58:37.341Z,82.63
2022-08-28T06:01:10.063Z,83.74
2022-08-28T06:03:37.664Z,83.50
2022-08-28T06:06:05.074Z,84.47
2022-08-28T06:08:32.064Z,83.20
2022-08-28T06:10:59.127Z,83.16
2022-08-28T06:13:26.508Z,82.43
2022-08-28T06:15:53.076Z,84.32
2022-08-28T06:18:19.618Z,82.76
2022-08-28T06:20:47.118Z,81.90
2022-08-28T06:23:17.309Z,82.20
2022-08-28T06:25:51.403Z,82.25
2022-08-28T06:28:20.791Z,81.87
2022-08-28T06:31:17.799Z,81.87
2022-08-28T06:33:34.032Z,81.08
2022-08-28T06:36:03.653Z,81.03
2022-08-28T06:38:30.793Z,79.58
2022-08-28T06:40:57.549Z,79.02
2022-08-28T06:43:26.921Z,80.86
2022-08-28T06:45:57.339Z,80.46
2022-08-28T06:48:27.499Z,80.33
2022-08-28T06:50:55.807Z,80.78
2022-08-28T06:53:25.330Z,79.89
2022-08-28T06:56:01.432Z,79.22
2022-08-28T06:58:28.718Z,77.92
2022-08-28T07:01:12.541Z,78.08
2022-08-28T07:03:42.523Z,77.14
2022-08-28T07:06:12.472Z,77.12
2022-08-28T07:08:39.890Z,77.76
2022-08-28T07:11:15.593Z,76.25
2022-08-28T07:13:43.347Z,77.59
2022-08-28T07:16:10.325Z,74.90
2022-08-28T07:18:37.205Z,75.66
2022-08-28T07:21:03.875Z,75.31
2022-08-28T07:23:32.163Z,73.45
2022-08-28T07:25:59.051Z,72.85
2022-08-28T07:28:26.190Z,72.27
2022-08-28T07:30:58.024Z,72.33
2022-08-28T07:33:25.451Z,71.96
2022-08-28T07:35:52.027Z,70.89
2022-08-28T07:38:18.568Z,70.00
2022-08-28T07:40:45.086Z,69.18
2022-08-28T07:43:30.278Z,69.18
2022-08-28T07:45:58.937Z,68.68
2022-08-28T07:48:25.583Z,67.95
2022-08-28T07:50:54.866Z,67.61
2022-08-28T07:53:21.434Z,68.07
2022-08-28T07:55:51.356Z,67.38
2022-08-28T07:58:19.857Z,66.44
2022-08-28T08:00:47.577Z,67.41
2022-08-28T08:03:14.547Z,67.79
2022-08-28T08:05:41.560Z,68.51
2022-08-28T08:08:08.099Z,68.18
2022-08-28T08:10:34.812Z,68.14
2022-08-28T08:13:01.367Z,65.08
2022-08-28T08:15:31.263Z,65.40
2022-08-28T08:17:58.002Z,66.67
2022-08-28T08:20:24.487Z,67.78
2022-08-28T08:22:51.012Z,67.41
2022-08-28T08:25:17.703Z,66.01
2022-08-28T08:27:44.215Z,64.66
2022-08-28T08:30:11.709Z,63.88
2022-08-28T08:32:40.210Z,65.22
2022-08-28T08:35:07.141Z,65.38
2022-08-28T08:37:33.665Z,64.41
2022-08-28T08:40:00.253Z,65.68
2022-08-28T08:42:30.371Z,65.26
2022-08-28T08:44:59.746Z,66.64
2022-08-28T08:47:59.594Z,65.30
2022-08-28T08:50:30.746Z,63.76
2022-08-28T08:53:18.587Z,64.89
2022-08-28T08:55:48.051Z,62.31
2022-08-28T08:58:36.454Z,61.83
2022-08-28T09:01:17.048Z,60.42
2022-08-28T09:04:15.747Z,61.31
2022-08-28T09:06:48.348Z,60.11
2022-08-28T09:09:19.328Z,60.08
2022-08-28T09:11:56.540Z,59.97
2022-08-28T09:14:42.121Z,60.32
2022-08-28T09:17:10.533Z,60.22
2022-08-28T09:19:37.187Z,61.44
2022-08-28T09:22:04.142Z,61.27
2022-08-28T09:24:33.845Z,59.62
2022-08-28T09:27:04.661Z,59.19
2022-08-28T09:29:32.793Z,59.10
2022-08-28T09:32:20.830Z,56.32
2022-08-28T09:35:13.146Z,56.50
2022-08-28T09:37:42.921Z,56.94
2022-08-28T09:40:29.061Z,56.53
2022-08-28T09:43:30.158Z,56.45
2022-08-28T09:57:12.496Z,55.55
2022-08-28T09:59:39.795Z,56.20
2022-08-28T10:02:24.698Z,53.91
2022-08-28T10:05:08.166Z,54.51
2022-08-28T10:07:58.172Z,54.71
2022-08-28T10:14:00.687Z,50.96
2022-08-28T10:16:53.211Z,48.59
2022-08-28T10:19:34.895Z,48.41
2022-08-28T10:22:40.517Z,51.97
2022-08-28T10:25:22.134Z,52.56
2022-08-28T10:27:58.388Z,55.33
2022-08-28T10:30:25.429Z,55.16
2022-08-28T10:32:58.107Z,55.26
2022-08-28T10:39:15.596Z,57.46
2022-08-28T10:53:24.101Z,55.63
2022-08-28T10:56:24.104Z,54.63
2022-08-28T10:59:03.699Z,53.88
2022-08-28T11:01:39.353Z,55.83
2022-08-28T11:04:30.997Z,56.13
2022-08-28T11:07:07.919Z,56.26
2022-08-28T11:15:07.125Z,55.76
2022-08-28T11:21:16.474Z,54.98
2022-08-28T11:23:52.803Z,53.16
2022-08-28T11:26:58.292Z,54.01
2022-08-28T11:30:02.320Z,55.80
2022-08-28T11:32:32.143Z,56.59
2022-08-28T11:35:14.210Z,57.79
2022-08-28T11:37:46.452Z,56.47
2022-08-28T11:40:22.608Z,57.67
2022-08-28T11:42:49.378Z,56.69
2022-08-28T11:48:36.348Z,53.92
2022-08-28T11:51:21.289Z,55.15
2022-08-28T11:54:08.362Z,56.60
2022-08-28T11:56:53.720Z,56.25
2022-08-28T11:59:35.008Z,54.29
2022-08-28T12:02:39.923Z,56.81
2022-08-28T12:05:15.895Z,55.70
2022-08-28T12:07:43.761Z,56.72
2022-08-28T12:10:33.347Z,56.94
2022-08-28T12:13:16.385Z,55.97
2022-08-28T12:16:04.687Z,55.67
2022-08-28T12:18:42.721Z,56.28
2022-08-28T12:21:22.035Z,56.50
2022-08-28T12:24:09.045Z,57.69
2022-08-28T12:26:39.949Z,56.42
2022-08-28T12:29:21.674Z,53.13
2022-08-28T12:32:18.801Z,54.06
2022-08-28T12:35:01.185Z,54.33
2022-08-28T12:37:29.990Z,53.35
2022-08-28T12:40:23.139Z,52.00
2022-08-28T12:42:56.327Z,51.60
2022-08-28T12:45:37.676Z,51.47
2022-08-28T12:48:24.090Z,52.71
2022-08-28T12:51:21.567Z,53.49
2022-08-28T12:53:51.402Z,56.32
2022-08-28T12:56:19.872Z,56.55
2022-08-28T12:58:47.141Z,55.41
2022-08-28T13:01:15.496Z,55.17
2022-08-28T13:03:48.155Z,55.33
2022-08-28T13:06:22.402Z,54.46
2022-08-28T13:08:49.262Z,54.13
2022-08-28T13:11:19.741Z,53.56
2022-08-28T13:13:49.057Z,54.40
2022-08-28T13:16:35.766Z,56.73
2022-08-28T13:19:05.520Z,53.37
2022-08-28T13:21:35.006Z,53.65
2022-08-28T13:24:21.217Z,54.96
2022-08-28T13:26:49.235Z,52.82
2022-08-28T13:29:24.026Z,54.09
2022-08-28T13:32:00.246Z,54.82
2022-08-28T13:34:29.712Z,53.40
2022-08-28T13:36:59.714Z,55.77
2022-08-28T13:39:30.710Z,56.78
2022-08-28T13:41:59.931Z,56.16
2022-08-28T13:44:32.629Z,54.53
2022-08-28T13:47:01.312Z,54.40
2022-08-28T13:49:28.279Z,56.36
2022-08-28T13:52:00.289Z,57.53
2022-08-28T13:54:28.044Z,58.77
2022-08-28T13:56:54.858Z,59.80
2022-08-28T13:59:23.348Z,58.95
2022-08-28T14:02:10.110Z,59.21
2022-08-28T14:04:36.924Z,60.28
2022-08-28T14:07:03.730Z,57.85
2022-08-28T14:09:30.219Z,59.31
2022-08-28T14:11:56.774Z,58.19
2022-08-28T14:14:23.306Z,60.34
2022-08-28T14:16:53.226Z,59.83
2022-08-28T14:19:20.149Z,60.72
2022-08-28T14:21:46.710Z,59.72
2022-08-28T14:24:13.430Z,59.34
2022-08-28T14:26:40.299Z,62.03
2022-08-28T14:29:09.785Z,61.14
2022-08-28T14:31:36.949Z,61.63
2022-08-28T14:34:04.903Z,62.84
2022-08-28T14:36:32.311Z,62.51
2022-08-28T14:39:05.412Z,63.20
2022-08-28T14:41:32.699Z,62.65
2022-08-28T14:43:59.170Z,61.66
2022-08-28T14:46:31.741Z,62.84
2022-08-28T14:49:00.523Z,62.94
2022-08-28T14:51:27.860Z,62.35
2022-08-28T14:53:54.423Z,61.02
2022-08-28T14:56:22.499Z,61.55
2022-08-28T14:58:49.082Z,61.80
2022-08-28T15:01:39.608Z,62.80
2022-08-28T15:04:11.038Z,61.89
2022-08-28T15:06:38.352Z,61.00
2022-08-28T15:09:05.130Z,61.15
2022-08-28T15:11:31.733Z,62.03
2022-08-28T15:13:58.523Z,62.96
2022-08-28T15:16:31.855Z,63.64
2022-08-28T15:18:59.526Z,61.74
2022-08-28T15:21:29.906Z,63.19
2022-08-28T15:23:57.813Z,62.07
2022-08-28T15:26:25.733Z,63.63
2022-08-28T15:28:55.751Z,63.50
2022-08-28T15:31:24.610Z,63.25
2022-08-28T15:33:51.754Z,63.41
2022-08-28T15:36:19.170Z,63.55
2022-08-28T15:39:04.740Z,65.89
2022-08-28T15:41:31.830Z,63.90
2022-08-28T15:44:01.472Z,65.53
2022-08-28T15:46:33.787Z,64.86
2022-08-28T15:49:05.323Z,64.32
2022-08-28T15:51:35.154Z,64.95
2022-08-28T15:54:02.530Z,65.01
2022-08-28T15:56:29.047Z,63.79
2022-08-28T15:58:55.568Z,65.34
2022-08-28T16:01:22.646Z,66.13
2022-08-28T16:03:49.351Z,66.13
2022-08-28T16:06:18.269Z,67.04
2022-08-28T16:08:45.628Z,66.68
2022-08-28T16:11:16.161Z,68.21
2022-08-28T16:13:42.775Z,68.76
2022-08-28T16:16:09.717Z,68.68
2022-08-28T16:18:36.234Z,68.50
2022-08-28T16:21:05.118Z,69.03
2022-08-28T16:23:32.632Z,68.12
2022-08-28T16:25:59.881Z,67.95
2022-08-28T16:28:27.119Z,67.86
2022-08-28T16:30:53.827Z,67.75
2022-08-28T16:33:22.098Z,67.89
2022-08-28T16:35:54.903Z,68.44
2022-08-28T16:38:23.708Z,68.10
2022-08-28T16:40:50.244Z,67.52
2022-08-28T16:43:16.995Z,67.01
2022-08-28T16:45:58.274Z,66.74
2022-08-28T16:48:24.802Z,67.39
2022-08-28T16:51:08.693Z,67.35
2022-08-28T16:53:35.242Z,66.71
2022-08-28T16:56:02.350Z,67.55
2022-08-28T16:58:29.030Z,68.46
2022-08-28T17:00:56.131Z,67.33
2022-08-28T17:03:26.947Z,67.40
2022-08-28T17:05:55.546Z,68.11
2022-08-28T17:08:22.509Z,68.11
2022-08-28T17:10:49.224Z,68.77
2022-08-28T17:13:16.056Z,69.95
2022-08-28T17:15:42.549Z,71.12
2022-08-28T17:18:09.349Z,71.02
2022-08-28T17:20:54.349Z,73.15
2022-08-28T17:23:20.878Z,71.13
2022-08-28T17:25:47.373Z,71.50
2022-08-28T17:28:15.267Z,69.82
2022-08-28T17:30:41.776Z,72.38
2022-08-28T17:33:08.320Z,72.55
2022-08-28T17:35:42.038Z,72.52
2022-08-28T17:38:08.917Z,71.71
2022-08-28T17:40:35.553Z,72.65
2022-08-28T17:43:03.588Z,71.19
2022-08-28T17:45:30.458Z,71.57
2022-08-28T17:47:57.034Z,71.51
2022-08-28T17:50:24.024Z,71.61
2022-08-28T17:52:50.556Z,72.01
2022-08-28T17:55:18.573Z,72.72
2022-08-28T17:57:45.126Z,72.90
2022-08-28T18:00:16.555Z,73.51
2022-08-28T18:02:43.822Z,73.00
2022-08-28T18:05:12.254Z,72.18
2022-08-28T18:07:38.929Z,70.79
2022-08-28T18:10:06.932Z,70.57
2022-08-28T18:12:33.467Z,70.37
2022-08-28T18:14:59.991Z,74.67
2022-08-28T18:17:28.189Z,71.93
2022-08-28T18:19:55.173Z,72.44
2022-08-28T18:22:22.957Z,71.97
2022-08-28T18:24:55.291Z,73.30
2022-08-28T18:27:22.238Z,74.22
2022-08-28T18:29:49.537Z,74.30
2022-08-28T18:32:16.208Z,73.66
2022-08-28T18:34:42.766Z,73.56
2022-08-28T18:37:09.815Z,73.89
2022-08-28T18:39:36.317Z,74.11
2022-08-28T18:42:05.250Z,72.22
2022-08-28T18:44:32.382Z,72.39
2022-08-28T18:46:59.366Z,72.98
2022-08-28T18:49:27.195Z,72.66
2022-08-28T18:51:54.962Z,71.94
2022-08-28T18:54:23.008Z,72.96
2022-08-28T18:57:03.943Z,73.25
2022-08-28T18:59:32.648Z,73.40
2022-08-28T19:02:00.530Z,72.34
2022-08-28T19:04:27.143Z,73.51
2022-08-28T19:06:53.647Z,73.63
2022-08-28T19:09:20.707Z,75.53
2022-08-28T19:11:47.619Z,74.10
2022-08-28T19:14:14.148Z,73.31
2022-08-28T19:16:40.685Z,73.97
2022-08-28T19:19:08.992Z,73.69
2022-08-28T19:21:40.818Z,73.29
2022-08-28T19:24:07.465Z,73.44
2022-08-28T19:26:34.003Z,73.19
2022-08-28T19:29:00.758Z,72.59
2022-08-28T19:31:27.915Z,74.85
2022-08-28T19:33:54.720Z,73.76
2022-08-28T19:36:32.614Z,75.70
2022-08-28T19:38:59.383Z,73.61
2022-08-28T19:41:26.481Z,73.72
2022-08-28T19:43:54.208Z,74.16
2022-08-28T19:46:21.100Z,76.57
2022-08-28T19:48:52.535Z,75.72
2022-08-28T19:51:23.238Z,75.92
2022-08-28T19:53:58.232Z,77.03
2022-08-28T19:56:27.499Z,76.09
2022-08-28T19:59:01.934Z,75.05
2022-08-28T20:01:31.516Z,76.74
2022-08-28T20:03:59.361Z,76.26
2022-08-28T20:06:26.981Z,77.65
2022-08-28T20:08:53.487Z,77.35
2022-08-28T20:11:24.965Z,76.09
2022-08-28T20:13:56.592Z,75.20
2022-08-28T20:16:24.512Z,75.17
2022-08-28T20:18:51.849Z,75.23
2022-08-28T20:21:25.851Z,76.83
2022-08-28T20:24:09.594Z,79.82
2022-08-28T20:26:36.764Z,78.43
2022-08-28T20:29:04.967Z,78.42
2022-08-28T20:31:31.558Z,78.10
2022-08-28T20:33:58.542Z,78.92
2022-08-28T20:36:26.291Z,79.19
2022-08-28T20:38:52.767Z,77.98
2022-08-28T20:41:21.456Z,79.19
2022-08-28T20:43:48.388Z,78.96
2022-08-28T20:46:19.774Z,81.31
2022-08-28T20:48:46.472Z,80.11
2022-08-28T20:51:13.147Z,79.85
2022-08-28T20:53:39.865Z,78.81
2022-08-28T20:56:09.492Z,78.93
2022-08-28T20:58:37.066Z,79.03
2022-08-28T21:01:05.484Z,78.51
2022-08-28T21:03:32.072Z,79.18
2022-08-28T21:06:00.614Z,80.71
2022-08-28T21:08:27.159Z,81.66
2022-08-28T21:10:54.049Z,80.19
2022-08-28T21:13:21.715Z,80.61
2022-08-28T21:15:48.241Z,81.24
2022-08-28T21:18:14.999Z,82.59
2022-08-28T21:20:41.820Z,81.17
2022-08-28T21:23:09.910Z,81.61
2022-08-28T21:25:36.411Z,81.64
2022-08-28T21:28:06.687Z,80.29
2022-08-28T21:30:34.223Z,81.43
2022-08-28T21:33:00.827Z,82.75
2022-08-28T21:35:27.441Z,81.38
2022-08-28T21:37:53.900Z,81.09
2022-08-28T21:40:20.621Z,80.77
2022-08-28T21:42:47.137Z,80.88
2022-08-28T21:45:14.137Z,81.77
2022-08-28T21:47:41.959Z,80.59
2022-08-28T21:50:09.085Z,81.86
2022-08-28T21:52:35.734Z,82.37
2022-08-28T21:55:07.694Z,79.73
2022-08-28T21:57:34.818Z,80.96
2022-08-28T22:00:01.744Z,83.55
2022-08-28T22:02:28.567Z,83.43
2022-08-28T22:04:55.196Z,82.95
2022-08-28T22:07:22.079Z,82.88
2022-08-28T22:09:48.673Z,81.28
2022-08-28T22:12:16.419Z,82.34
2022-08-28T22:14:43.240Z,83.94
2022-08-28T22:17:11.259Z,83.94
2022-08-28T22:19:39.059Z,83.15
2022-08-28T22:22:37.810Z,82.42
2022-08-28T22:25:04.794Z,83.43
2022-08-28T22:27:34.693Z,84.39
2022-08-28T22:30:01.226Z,82.64
2022-08-28T22:32:28.087Z,86.33
2022-08-28T22:34:55.265Z,83.38
2022-08-28T22:37:22.976Z,83.91
2022-08-28T22:39:49.478Z,84.05
2022-08-28T22:42:16.022Z,85.60
2022-08-28T22:44:51.651Z,84.17
2022-08-28T22:47:18.951Z,85.68
2022-08-28T22:49:45.581Z,86.41
2022-08-28T22:52:12.106Z,86.08
2022-08-28T22:54:39.054Z,86.08
2022-08-28T22:57:06.027Z,85.21
2022-08-28T22:59:33.143Z,85.67
2022-08-28T23:02:00.002Z,86.14
2022-08-28T23:04:26.906Z,86.39
2022-08-28T23:06:53.647Z,87.07
2022-08-28T23:09:22.981Z,86.20
2022-08-28T23:11:49.795Z,87.91
2022-08-28T23:14:16.599Z,86.69
2022-08-28T23:16:43.180Z,85.43
2022-08-28T23:19:13.282Z,85.67
2022-08-28T23:21:43.532Z,84.94
2022-08-28T23:24:11.270Z,83.93
2022-08-28T23:26:37.882Z,83.64
2022-08-28T23:29:05.159Z,85.49
2022-08-28T23:31:31.703Z,85.09
2022-08-28T23:33:58.278Z,85.62
2022-08-28T23:36:25.247Z,85.64
2022-08-28T23:38:52.010Z,85.20
2022-08-28T23:41:18.743Z,85.12
2022-08-28T23:43:45.724Z,85.82
2022-08-28T23:46:17.188Z,84.37
2022-08-28T23:48:45.238Z,86.79
2022-08-28T23:51:13.049Z,86.06
2022-08-28T23:53:41.507Z,86.17
2022-08-28T23:56:08.194Z,84.44
2022-08-28T23:58:35.242Z,84.86
